Time;durP1;ratioP1;P1;durP2;ratioP2;P2;SDS_P1;SDS_P2;PMS_P1;PMS_P2;Temp;Humidity;BMP_temperature;BMP_pressure;BME280_temperature;BME280_humidity;BME280_pressure;Samples;Min_cycle;Max_cycle;Signal;HPM_P1;HPM_P2
2023/05/20 00:01:20;;;;;;;4.17;2.60;;;;;;;;;;5049271;28;20524;-61
2023/05/20 00:03:47;;;;;;;3.90;3.33;;;;;;;;;;5041933;28;20467;-60
2023/05/20 00:06:14;;;;;;;3.40;2.97;;;;;;;;;;5043539;28;20524;-60
2023/05/20 00:08:43;;;;;;;2.70;2.17;;;;;;;;;;5045305;28;20476;-61
2023/05/20 00:11:10;;;;;;;3.70;2.90;;;;;;;;;;5039417;28;20459;-60
2023/05/20 00:13:37;;;;;;;3.97;2.40;;;;;;;;;;5048653;28;20440;-59
2023/05/20 00:16:05;;;;;;;2.50;2.20;;;13.60;99.90;;;;;;5055072;28;20443;-61
2023/05/20 00:18:32;;;;;;;2.70;2.30;;;;;;;;;;5042702;28;20452;-61
2023/05/20 00:20:59;;;;;;;10.00;3.80;;;;;;;;;;5040389;28;20483;-61
2023/05/20 00:23:29;;;;;;;3.30;2.40;;;;;;;;;;5041192;28;20456;-62
2023/05/20 00:25:57;;;;;;;6.30;3.10;;;;;;;;;;5039343;28;20440;-60
2023/05/20 00:28:25;;;;;;;6.60;3.10;;;;;;;;;;5043883;28;20456;-60
2023/05/20 00:30:52;;;;;;;3.20;2.53;;;;;;;;;;5044062;28;20505;-59
2023/05/20 00:33:19;;;;;;;5.43;2.90;;;;;;;;;;5055183;28;20468;-59
2023/05/20 00:35:46;;;;;;;5.10;2.80;;;;;;;;;;5051027;28;20446;-61
2023/05/20 00:38:13;;;;;;;9.73;2.97;;;;;;;;;;5049645;28;20592;-58
2023/05/20 00:40:40;;;;;;;3.57;3.10;;;;;;;;;;5042652;28;20821;-59
2023/05/20 00:43:09;;;;;;;5.40;3.03;;;;;;;;;;5038927;28;20556;-61
2023/05/20 00:45:38;;;;;;;2.57;2.00;;;;;;;;;;5045251;28;20498;-59
2023/05/20 00:48:05;;;;;;;4.33;2.57;;;;;;;;;;5044680;28;20496;-62
2023/05/20 00:50:32;;;;;;;3.17;2.27;;;;;;;;;;5045559;28;20491;-59
2023/05/20 00:53:00;;;;;;;3.97;2.73;;;;;;;;;;5053809;28;20472;-61
2023/05/20 00:55:30;;;;;;;4.87;2.47;;;;;;;;;;5041926;28;20429;-60
2023/05/20 00:57:58;;;;;;;5.10;2.80;;;;;;;;;;5052181;28;20472;-61
2023/05/20 01:00:26;;;;;;;7.00;2.87;;;;;;;;;;5051769;28;20448;-58
2023/05/20 01:02:54;;;;;;;11.53;3.10;;;;;;;;;;5052343;28;20498;-61
2023/05/20 01:05:23;;;;;;;5.77;2.63;;;;;;;;;;5038740;28;20460;-61
2023/05/20 01:07:50;;;;;;;5.00;3.60;;;;;;;;;;5038338;28;20491;-60
2023/05/20 01:10:17;;;;;;;2.60;2.17;;;;;;;;;;5040797;28;20506;-60
2023/05/20 01:12:48;;;;;;;6.20;2.60;;;13.10;99.90;;;;;;5035434;28;20540;-62
2023/05/20 01:15:16;;;;;;;3.20;2.47;;;;;;;;;;5036273;28;21217;-61
2023/05/20 01:17:46;;;;;;;4.80;2.83;;;13.30;99.90;;;;;;5036150;28;20522;-62
2023/05/20 01:20:14;;;;;;;4.97;2.83;;;12.90;99.90;;;;;;5051388;28;20452;-58
2023/05/20 01:22:53;;;;;;;9.67;2.97;;;13.00;99.90;;;;;;5050239;28;20543;-60
2023/05/20 01:25:20;;;;;;;2.90;2.60;;;;;;;;;;5046987;28;20476;-60
2023/05/20 01:27:47;;;;;;;2.97;2.70;;;;;;;;;;5047125;28;20440;-61
2023/05/20 01:30:15;;;;;;;4.67;3.03;;;;;;;;;;5046183;28;20528;-60
2023/05/20 01:32:43;;;;;;;8.00;2.90;;;;;;;;;;5039084;28;20631;-61
2023/05/20 01:35:11;;;;;;;7.47;2.20;;;;;;;;;;5043225;28;20510;-61
2023/05/20 01:37:40;;;;;;;5.50;3.10;;;12.70;99.90;;;;;;5046364;28;20482;-59
2023/05/20 01:40:11;;;;;;;7.80;2.60;;;12.90;99.90;;;;;;5040854;28;20468;-61
2023/05/20 01:42:39;;;;;;;7.43;3.20;;;13.10;99.90;;;;;;5038472;28;20456;-59
2023/05/20 01:45:13;;;;;;;3.83;3.00;;;12.80;99.90;;;;;;5047579;28;20460;-61
2023/05/20 01:47:41;;;;;;;5.93;3.63;;;;;;;;;;5033908;28;20524;-62
2023/05/20 01:50:08;;;;;;;4.13;3.07;;;;;;;;;;5036412;28;20487;-62
2023/05/20 01:52:41;;;;;;;5.30;3.63;;;12.90;99.90;;;;;;5038374;28;20825;-59
2023/05/20 01:55:10;;;;;;;3.77;3.00;;;12.90;99.90;;;;;;5043461;28;20554;-62
2023/05/20 01:57:37;;;;;;;5.93;3.30;;;;;;;;;;5039486;28;20544;-59
2023/05/20 02:00:05;;;;;;;4.30;2.50;;;;;;;;;;5043457;28;20949;-61
2023/05/20 02:02:33;;;;;;;3.37;2.70;;;;;;;;;;5039017;28;20486;-63
2023/05/20 02:05:00;;;;;;;6.10;5.60;;;;;;;;;;5046384;28;20541;-60
2023/05/20 02:07:27;;;;;;;5.50;2.83;;;;;;;;;;5047295;28;20482;-59
2023/05/20 02:09:54;;;;;;;6.13;2.70;;;;;;;;;;5055193;28;20476;-60
2023/05/20 02:12:23;;;;;;;5.80;2.87;;;12.50;99.90;;;;;;5050324;28;20488;-60
2023/05/20 02:14:51;;;;;;;3.70;2.63;;;;;;;;;;5050349;28;20468;-61
2023/05/20 02:17:18;;;;;;;4.43;2.97;;;;;;;;;;5040448;28;20455;-62
2023/05/20 02:19:47;;;;;;;7.00;3.23;;;12.70;99.90;;;;;;5037635;28;20861;-61
2023/05/20 02:22:15;;;;;;;6.70;2.50;;;;;;;;;;5038059;28;20485;-62
2023/05/20 02:24:42;;;;;;;6.40;2.97;;;;;;;;;;5043492;28;20456;-60
2023/05/20 02:27:09;;;;;;;6.13;2.77;;;;;;;;;;5050717;28;20428;-61
2023/05/20 02:29:37;;;;;;;5.03;2.80;;;12.60;99.90;;;;;;5050393;28;20488;-61
2023/05/20 02:32:06;;;;;;;6.50;3.00;;;;;;;;;;5044440;28;20475;-60
2023/05/20 02:34:33;;;;;;;3.70;3.07;;;;;;;;;;5039498;28;20470;-60
2023/05/20 02:37:01;;;;;;;3.53;2.50;;;;;;;;;;5054198;28;20474;-60
2023/05/20 02:39:28;;;;;;;4.73;3.07;;;;;;;;;;5052143;28;20475;-61
2023/05/20 02:41:55;;;;;;;4.20;2.87;;;;;;;;;;5046784;28;20564;-61
2023/05/20 02:44:23;;;;;;;2.80;2.03;;;;;;;;;;5053054;28;20515;-60
2023/05/20 02:46:51;;;;;;;13.47;2.50;;;13.00;99.90;;;;;;5033763;28;20475;-62
2023/05/20 02:49:18;;;;;;;4.63;2.60;;;;;;;;;;5033935;28;20440;-60
2023/05/20 02:51:45;;;;;;;2.93;2.27;;;;;;;;;;5044414;28;20784;-61
2023/05/20 02:54:13;;;;;;;5.60;3.13;;;;;;;;;;5051882;28;20491;-59
2023/05/20 02:56:40;;;;;;;3.73;2.80;;;;;;;;;;5050878;28;20497;-60
2023/05/20 02:59:07;;;;;;;2.60;2.40;;;;;;;;;;5041974;28;20515;-60
2023/05/20 03:01:34;;;;;;;7.63;3.17;;;;;;;;;;5041977;28;20504;-60
2023/05/20 03:04:03;;;;;;;2.93;2.33;;;12.80;99.90;;;;;;5051482;28;20448;-61
2023/05/20 03:06:31;;;;;;;5.90;3.07;;;;;;;;;;5056706;28;20467;-61
2023/05/20 03:08:58;;;;;;;6.00;3.03;;;;;;;;;;5051934;28;20436;-62
2023/05/20 03:11:26;;;;;;;4.80;3.50;;;;;;;;;;5050223;28;20577;-60
2023/05/20 03:13:53;;;;;;;5.50;2.80;;;;;;;;;;5052270;28;20466;-60
2023/05/20 03:16:20;;;;;;;5.00;2.97;;;;;;;;;;5055191;28;20503;-62
2023/05/20 03:18:48;;;;;;;4.53;3.13;;;;;;;;;;5046345;28;20547;-60
2023/05/20 03:21:16;;;;;;;6.47;3.57;;;13.00;99.90;;;;;;5046297;28;20476;-59
2023/05/20 03:23:43;;;;;;;4.70;3.67;;;;;;;;;;5057172;28;20441;-61
2023/05/20 03:26:10;;;;;;;4.13;2.93;;;;;;;;;;5054302;28;20482;-61
2023/05/20 03:28:38;;;;;;;3.60;2.70;;;;;;;;;;5056744;28;20452;-60
2023/05/20 03:31:05;;;;;;;5.27;3.67;;;;;;;;;;5053091;28;20480;-62
2023/05/20 03:33:34;;;;;;;5.73;2.70;;;12.80;99.90;;;;;;5055152;28;20451;-61
2023/05/20 03:36:02;;;;;;;4.17;3.77;;;;;;;;;;5051437;28;20448;-62
2023/05/20 03:38:30;;;;;;;3.67;2.50;;;12.90;99.90;;;;;;5042051;28;20487;-61
2023/05/20 03:40:57;;;;;;;3.73;2.77;;;;;;;;;;5047577;28;20563;-60
2023/05/20 03:43:25;;;;;;;10.47;2.90;;;;;;;;;;5042222;28;20483;-62
2023/05/20 03:45:53;;;;;;;7.17;3.03;;;;;;;;;;5040740;28;20511;-61
2023/05/20 03:48:20;;;;;;;5.90;2.70;;;;;;;;;;5040254;28;20526;-60
2023/05/20 03:50:47;;;;;;;5.40;2.67;;;;;;;;;;5039656;28;20594;-63
2023/05/20 03:53:16;;;;;;;6.80;3.10;;;;;;;;;;5036174;28;20555;-62
2023/05/20 03:55:48;;;;;;;5.03;2.87;;;;;;;;;;5035741;28;20452;-61
2023/05/20 03:58:15;;;;;;;4.73;3.03;;;;;;;;;;5040522;28;20602;-62
2023/05/20 04:00:42;;;;;;;4.67;3.90;;;;;;;;;;5043973;28;20464;-61
2023/05/20 04:03:10;;;;;;;4.73;2.90;;;;;;;;;;5047897;28;20503;-62
2023/05/20 04:05:37;;;;;;;4.33;3.17;;;;;;;;;;5043505;28;20458;-61
2023/05/20 04:08:04;;;;;;;3.40;2.53;;;;;;;;;;5052896;28;20469;-61
2023/05/20 04:10:32;;;;;;;9.27;3.43;;;;;;;;;;5052392;28;20476;-61
2023/05/20 04:13:00;;;;;;;4.23;2.80;;;13.10;99.90;;;;;;5051982;28;20464;-59
2023/05/20 04:15:28;;;;;;;9.70;3.83;;;;;;;;;;5050662;28;20441;-60
2023/05/20 04:17:55;;;;;;;3.30;2.70;;;;;;;;;;5044312;28;20483;-62
2023/05/20 04:20:23;;;;;;;6.30;2.83;;;;;;;;;;5043187;28;20480;-60
2023/05/20 04:22:52;;;;;;;5.00;2.90;;;12.90;99.90;;;;;;5046576;28;20545;-61
2023/05/20 04:25:20;;;;;;;6.30;3.50;;;;;;;;;;5052691;28;20522;-62
2023/05/20 04:27:48;;;;;;;8.03;4.03;;;;;;;;;;5056208;28;20456;-63
2023/05/20 04:30:17;;;;;;;6.50;3.40;;;;;;;;;;5036177;28;20484;-61
2023/05/20 04:32:44;;;;;;;6.37;3.97;;;;;;;;;;5037872;28;20468;-60
2023/05/20 04:35:12;;;;;;;14.60;3.10;;;;;;;;;;5039737;28;20532;-61
2023/05/20 04:37:41;;;;;;;4.37;2.97;;;;;;;;;;5046222;28;20460;-59
2023/05/20 04:40:09;;;;;;;4.53;3.30;;;13.20;99.90;;;;;;5040449;28;20437;-61
2023/05/20 04:42:36;;;;;;;3.40;2.87;;;;;;;;;;5044998;28;20463;-60
2023/05/20 04:45:04;;;;;;;4.17;2.80;;;;;;;;;;5045080;28;20452;-61
2023/05/20 04:47:37;;;;;;;6.77;2.70;;;;;;;;;;5035933;28;20455;-61
2023/05/20 04:50:04;;;;;;;3.83;3.13;;;;;;;;;;5035370;28;20747;-60
2023/05/20 04:52:31;;;;;;;5.20;3.37;;;;;;;;;;5050406;28;20452;-61
2023/05/20 04:55:00;;;;;;;6.43;3.70;;;;;;;;;;5046456;28;20479;-58
2023/05/20 04:57:27;;;;;;;9.40;2.97;;;;;;;;;;5039424;28;20460;-62
2023/05/20 04:59:57;;;;;;;4.17;3.57;;;;;;;;;;5050363;28;20444;-61
2023/05/20 05:02:24;;;;;;;7.50;3.73;;;;;;;;;;5040083;28;20456;-59
2023/05/20 05:04:53;;;;;;;8.73;3.07;;;;;;;;;;5053216;28;20491;-61
2023/05/20 05:07:20;;;;;;;3.50;2.60;;;;;;;;;;5044575;28;20452;-61
2023/05/20 05:09:47;;;;;;;6.17;2.80;;;;;;;;;;5040621;28;20546;-60
2023/05/20 05:12:17;;;;;;;6.47;4.10;;;13.60;99.90;;;;;;5039147;28;20894;-60
2023/05/20 05:14:49;;;;;;;6.57;3.30;;;13.30;99.90;;;;;;5050083;28;20472;-55
2023/05/20 05:17:17;;;;;;;8.00;3.17;;;;;;;;;;5055055;28;20757;-59
2023/05/20 05:19:44;;;;;;;6.60;3.97;;;;;;;;;;5047296;28;21168;-61
2023/05/20 05:22:12;;;;;;;4.90;3.30;;;;;;;;;;5038928;28;20857;-62
2023/05/20 05:24:40;;;;;;;13.33;4.90;;;;;;;;;;5038714;28;20476;-60
2023/05/20 05:27:07;;;;;;;5.87;3.03;;;;;;;;;;5045663;28;20448;-60
2023/05/20 05:29:34;;;;;;;5.30;3.77;;;;;;;;;;5044014;28;20499;-59
2023/05/20 05:32:01;;;;;;;4.77;3.40;;;;;;;;;;5038542;28;20526;-61
2023/05/20 05:34:28;;;;;;;8.50;3.17;;;;;;;;;;5043133;28;20468;-60
2023/05/20 05:36:55;;;;;;;6.63;4.67;;;;;;;;;;5054374;28;20429;-61
2023/05/20 05:39:24;;;;;;;6.13;3.37;;;13.40;99.90;;;;;;5046938;28;20525;-61
2023/05/20 05:41:52;;;;;;;10.80;3.57;;;;;;;;;;5038443;28;20532;-62
2023/05/20 05:44:20;;;;;;;4.37;3.00;;;;;;;;;;5038737;28;20456;-62
2023/05/20 05:46:47;;;;;;;4.73;3.23;;;;;;;;;;5047026;28;20444;-62
2023/05/20 05:49:14;;;;;;;5.20;3.40;;;;;;;;;;5048169;28;20491;-60
2023/05/20 05:51:41;;;;;;;6.97;3.50;;;;;;;;;;5039368;28;20472;-60
2023/05/20 05:54:08;;;;;;;6.50;3.60;;;;;;;;;;5039159;28;20487;-62
2023/05/20 05:56:37;;;;;;;4.50;3.50;;;13.70;99.90;;;;;;5049459;28;20451;-62
2023/05/20 05:59:06;;;;;;;4.10;3.63;;;13.90;99.90;;;;;;5034073;28;20517;-61
2023/05/20 06:01:33;;;;;;;7.43;3.27;;;;;;;;;;5037710;28;20537;-62
2023/05/20 06:04:00;;;;;;;11.13;4.10;;;;;;;;;;5041311;28;20543;-61
2023/05/20 06:06:28;;;;;;;6.63;3.63;;;;;;;;;;5037227;28;20531;-60
2023/05/20 06:08:55;;;;;;;5.97;4.30;;;;;;;;;;5033540;28;20527;-60
2023/05/20 06:11:22;;;;;;;5.87;4.30;;;;;;;;;;5033412;28;20488;-62
2023/05/20 06:13:53;;;;;;;7.80;3.73;;;14.00;99.90;;;;;;5040458;28;20471;-59
2023/05/20 06:16:20;;;;;;;5.43;4.00;;;;;;;;;;5042382;28;20504;-60
2023/05/20 06:18:49;;;;;;;7.20;4.40;;;;;;;;;;5047847;28;20475;-61
2023/05/20 06:21:16;;;;;;;4.90;3.67;;;;;;;;;;5053740;28;20491;-58
2023/05/20 06:23:43;;;;;;;4.63;3.23;;;;;;;;;;5045776;28;20641;-61
2023/05/20 06:26:10;;;;;;;5.80;4.10;;;;;;;;;;5040598;28;20586;-61
2023/05/20 06:28:37;;;;;;;5.63;3.93;;;;;;;;;;5041264;28;20984;-62
2023/05/20 06:31:06;;;;;;;7.60;4.37;;;;;;;;;;5042905;28;20523;-60
2023/05/20 06:33:33;;;;;;;8.33;4.03;;;;;;;;;;5041404;28;20735;-61
2023/05/20 06:36:01;;;;;;;7.00;3.87;;;;;;;;;;5041472;28;20496;-60
2023/05/20 06:38:28;;;;;;;6.10;3.67;;;;;;;;;;5042130;28;20450;-62
2023/05/20 06:41:00;;;;;;;6.90;4.23;;;;;;;;;;5051935;28;20474;-60
2023/05/20 06:43:27;;;;;;;8.77;4.50;;;;;;;;;;5057545;28;20436;-61
2023/05/20 06:45:54;;;;;;;7.63;3.50;;;;;;;;;;5053470;28;20464;-60
2023/05/20 06:48:23;;;;;;;7.83;5.10;;;;;;;;;;5041193;28;20487;-58
2023/05/20 06:50:53;;;;;;;6.17;4.27;;;;;;;;;;5050190;28;20497;-61
2023/05/20 06:53:20;;;;;;;6.77;4.70;;;;;;;;;;5041533;28;20439;-60
2023/05/20 06:55:48;;;;;;;11.50;4.20;;;;;;;;;;5041433;28;20543;-59
2023/05/20 06:58:17;;;;;;;8.80;4.87;;;;;;;;;;5046958;28;20468;-61
2023/05/20 07:00:44;;;;;;;4.50;3.50;;;;;;;;;;5054288;28;20475;-61
2023/05/20 07:03:12;;;;;;;3.93;3.50;;;;;;;;;;5045466;28;20515;-61
2023/05/20 07:05:43;;;;;;;5.10;4.13;;;14.50;99.90;;;;;;5051762;28;20444;-61
2023/05/20 07:08:10;;;;;;;7.37;4.50;;;;;;;;;;5049704;28;20443;-61
2023/05/20 07:10:37;;;;;;;8.30;4.73;;;;;;;;;;5049877;28;20471;-62
2023/05/20 07:13:04;;;;;;;5.30;4.10;;;;;;;;;;5026896;28;20456;-60
2023/05/20 07:15:31;;;;;;;6.07;4.50;;;;;;;;;;5033401;28;20476;-57
2023/05/20 07:17:59;;;;;;;5.70;3.70;;;;;;;;;;5027855;28;20877;-62
2023/05/20 07:20:26;;;;;;;7.90;3.83;;;;;;;;;;5020661;28;20855;-62
2023/05/20 07:22:54;;;;;;;8.63;4.50;;;14.80;99.90;;;;;;5027604;28;20489;-61
2023/05/20 07:25:21;;;;;;;5.23;4.23;;;;;;;;;;5028849;28;20460;-59
2023/05/20 07:27:49;;;;;;;4.03;3.47;;;;;;;;;;5034662;28;20465;-58
2023/05/20 07:30:16;;;;;;;10.57;4.63;;;;;;;;;;5031259;28;20485;-61
2023/05/20 07:32:43;;;;;;;6.70;4.47;;;;;;;;;;5022055;28;20493;-61
2023/05/20 07:35:10;;;;;;;6.10;3.97;;;;;;;;;;5024084;28;20493;-62
2023/05/20 07:37:42;;;;;;;4.93;3.97;;;14.80;99.90;;;;;;5030539;28;20945;-62
2023/05/20 07:40:11;;;;;;;5.00;3.90;;;;;;;;;;5026612;28;20462;-59
2023/05/20 07:42:38;;;;;;;10.67;4.30;;;;;;;;;;5045696;28;20567;-62
2023/05/20 07:45:08;;;;;;;5.73;4.00;;;15.30;99.90;;;;;;5039595;28;20479;-61
2023/05/20 07:47:36;;;;;;;5.57;3.33;;;;;;;;;;5045055;28;20491;-62
2023/05/20 07:50:03;;;;;;;5.70;4.03;;;;;;;;;;5043594;28;20731;-62
2023/05/20 07:52:30;;;;;;;6.83;4.57;;;;;;;;;;5041169;28;20583;-62
2023/05/20 07:54:57;;;;;;;4.53;3.60;;;;;;;;;;5039897;28;20483;-61
2023/05/20 07:57:25;;;;;;;4.40;3.40;;;15.80;99.90;;;;;;5047277;28;20444;-59
2023/05/20 07:59:53;;;;;;;6.50;4.23;;;;;;;;;;5041376;28;20502;-60
2023/05/20 08:02:20;;;;;;;6.43;4.40;;;;;;;;;;5050351;28;20424;-59
2023/05/20 08:04:47;;;;;;;6.30;4.00;;;;;;;;;;5048323;28;20428;-61
2023/05/20 08:07:14;;;;;;;6.23;4.03;;;;;;;;;;5054469;28;20468;-60
2023/05/20 08:09:42;;;;;;;5.60;3.10;;;;;;;;;;5045785;28;20474;-59
2023/05/20 08:12:09;;;;;;;5.60;4.40;;;;;;;;;;5050249;28;20490;-60
2023/05/20 08:14:38;;;;;;;6.10;4.60;;;16.60;99.90;;;;;;5050862;28;20471;-62
2023/05/20 08:17:05;;;;;;;5.60;4.00;;;;;;;;;;5041894;28;20798;-62
2023/05/20 08:19:32;;;;;;;12.40;4.50;;;;;;;;;;5049012;28;20436;-62
2023/05/20 08:22:00;;;;;;;11.97;4.40;;;;;;;;;;5043760;28;20483;-62
2023/05/20 08:24:27;;;;;;;6.47;3.20;;;;;;;;;;5044623;28;20772;-60
2023/05/20 08:26:54;;;;;;;5.40;3.70;;;;;;;;;;5042056;28;20551;-62
2023/05/20 08:29:21;;;;;;;5.27;3.80;;;;;;;;;;5050715;28;20525;-61
2023/05/20 08:31:51;;;;;;;5.53;3.20;;;;;;;;;;5036621;28;20516;-62
2023/05/20 08:34:18;;;;;;;5.47;4.23;;;;;;;;;;5035809;28;20473;-60
2023/05/20 08:36:45;;;;;;;10.40;3.87;;;;;;;;;;5047687;28;20453;-62
2023/05/20 08:39:12;;;;;;;6.20;3.03;;;;;;;;;;5035934;28;20563;-60
2023/05/20 08:41:39;;;;;;;7.13;4.07;;;;;;;;;;5040718;28;20977;-62
2023/05/20 08:44:09;;;;;;;4.53;3.50;;;17.30;99.90;;;;;;5039629;28;20567;-62
2023/05/20 08:46:38;;;;;;;5.20;3.53;;;17.40;99.90;;;;;;5046366;28;20478;-59
2023/05/20 08:49:07;;;;;;;6.17;4.03;;;17.40;99.90;;;;;;5052910;28;20508;-59
2023/05/20 08:51:34;;;;;;;5.60;4.40;;;;;;;;;;5039254;28;20503;-62
2023/05/20 08:54:01;;;;;;;7.83;4.17;;;;;;;;;;5050932;28;20476;-60
2023/05/20 08:56:29;;;;;;;5.53;3.93;;;;;;;;;;5048899;28;20496;-56
2023/05/20 08:58:56;;;;;;;4.47;3.90;;;;;;;;;;5051202;28;20479;-63
2023/05/20 09:01:24;;;;;;;7.20;4.60;;;17.50;99.90;;;;;;5041355;28;20479;-61
2023/05/20 09:03:51;;;;;;;7.00;4.80;;;;;;;;;;5052815;28;20452;-58
2023/05/20 09:06:20;;;;;;;5.00;3.67;;;17.10;99.90;;;;;;5036093;28;20448;-61
2023/05/20 09:08:47;;;;;;;6.27;4.20;;;;;;;;;;5037400;28;20458;-60
2023/05/20 09:11:17;;;;;;;3.87;3.47;;;17.00;99.90;;;;;;5046555;28;20468;-61
2023/05/20 09:13:44;;;;;;;3.87;3.43;;;;;;;;;;5052924;28;20441;-60
2023/05/20 09:16:12;;;;;;;9.43;3.90;;;;;;;;;;5050500;28;20447;-61
2023/05/20 09:18:40;;;;;;;6.10;4.20;;;;;;;;;;5049121;28;20460;-56
2023/05/20 09:21:07;;;;;;;4.60;3.47;;;;;;;;;;5044249;28;20507;-59
2023/05/20 09:23:37;;;;;;;6.93;4.03;;;17.10;99.90;;;;;;5043123;28;20925;-61
2023/05/20 09:26:04;;;;;;;6.33;3.33;;;;;;;;;;5044658;28;20544;-61
2023/05/20 09:28:32;;;;;;;5.97;4.00;;;;;;;;;;5040554;28;20516;-60
2023/05/20 09:31:00;;;;;;;8.50;3.87;;;;;;;;;;5041021;28;20472;-62
2023/05/20 09:33:30;;;;;;;6.43;4.30;;;;;;;;;;5044264;28;20490;-61
2023/05/20 09:36:04;;;;;;;4.50;3.80;;;17.40;99.90;;;;;;5048197;28;20471;-61
2023/05/20 09:38:36;;;;;;;13.60;5.47;;;17.20;99.90;;;;;;5044501;28;20433;-61
2023/05/20 09:41:07;;;;;;;8.23;5.77;;;;;;;;;;5041988;28;20534;-60
2023/05/20 09:43:34;;;;;;;7.93;4.80;;;;;;;;;;5040093;28;20515;-61
2023/05/20 09:46:02;;;;;;;7.87;5.50;;;;;;;;;;5048119;28;20498;-61
2023/05/20 09:48:30;;;;;;;9.30;5.90;;;17.20;99.90;;;;;;5039843;28;20546;-60
2023/05/20 09:50:57;;;;;;;9.00;5.90;;;;;;;;;;5040766;28;20495;-62
2023/05/20 09:53:27;;;;;;;10.47;5.20;;;17.50;99.90;;;;;;5036905;28;20633;-62
2023/05/20 09:55:57;;;;;;;11.63;5.17;;;17.50;99.90;;;;;;5047298;28;20491;-61
2023/05/20 09:58:26;;;;;;;13.93;5.80;;;;;;;;;;5039783;28;20475;-60
2023/05/20 10:00:53;;;;;;;10.33;5.23;;;;;;;;;;5045858;28;20572;-60
2023/05/20 10:03:23;;;;;;;9.73;5.10;;;17.30;99.90;;;;;;5049149;28;20550;-61
2023/05/20 10:06:02;;;;;;;5.90;4.63;;;17.20;99.90;;;;;;5051752;28;21096;-62
2023/05/20 10:08:46;;;;;;;6.23;5.43;;;17.20;99.90;;;;;;5053390;28;20497;-61
2023/05/20 10:11:38;;;;;;;7.47;4.77;;;16.80;99.90;;;;;;5048683;28;20515;-58
2023/05/20 10:14:25;;;;;;;7.50;6.10;;;17.20;99.90;;;;;;5052857;28;20413;-61
2023/05/20 10:17:00;;;;;;;10.17;6.60;;;17.20;99.90;;;;;;5038191;28;20558;-61
2023/05/20 10:19:29;;;;;;;9.70;6.60;;;17.30;99.90;;;;;;5037811;28;20455;-62
2023/05/20 10:21:58;;;;;;;8.40;5.30;;;17.10;99.90;;;;;;5038371;28;20468;-60
2023/05/20 10:24:31;;;;;;;9.00;6.07;;;17.10;99.90;;;;;;5041912;28;20494;-61
2023/05/20 10:26:58;;;;;;;8.43;5.43;;;;;;;;;;5047298;28;20472;-57
2023/05/20 10:29:26;;;;;;;9.30;5.87;;;17.20;99.90;;;;;;5043822;28;20471;-61
2023/05/20 10:31:54;;;;;;;9.03;5.57;;;;;;;;;;5043909;28;20527;-59
2023/05/20 10:34:22;;;;;;;8.77;4.93;;;17.90;99.90;;;;;;5047044;28;20813;-60
2023/05/20 10:36:58;;;;;;;7.00;5.00;;;18.00;99.90;;;;;;5049379;28;20502;-61
2023/05/20 10:39:27;;;;;;;16.77;7.47;;;18.10;99.90;;;;;;5051748;28;20434;-60
2023/05/20 10:41:54;;;;;;;9.10;5.33;;;;;;;;;;5043749;28;20478;-60
2023/05/20 10:44:21;;;;;;;7.30;5.30;;;;;;;;;;5042835;28;20535;-61
2023/05/20 10:47:02;;;;;;;9.50;5.73;;;18.60;99.90;;;;;;5045029;28;20572;-61
2023/05/20 10:49:34;;;;;;;7.63;5.93;;;18.70;99.90;;;;;;5047119;28;20451;-62
2023/05/20 10:52:01;;;;;;;8.60;5.93;;;;;;;;;;5040596;28;20499;-61
2023/05/20 10:54:35;;;;;;;8.47;5.13;;;19.70;99.90;;;;;;5042852;28;20566;-59
2023/05/20 10:57:08;;;;;;;10.17;6.90;;;19.00;99.90;;;;;;5046437;28;20464;-62
2023/05/20 10:59:35;;;;;;;7.80;5.70;;;;;;;;;;5042528;28;20436;-59
2023/05/20 11:02:03;;;;;;;6.40;5.30;;;19.00;99.90;;;;;;5046264;28;20464;-62
2023/05/20 11:04:31;;;;;;;8.23;5.80;;;;;;;;;;5046778;28;20464;-59
2023/05/20 11:06:58;;;;;;;7.60;5.70;;;;;;;;;;5049320;28;20464;-59
2023/05/20 11:09:26;;;;;;;9.33;6.57;;;;;;;;;;5053585;28;20462;-61
2023/05/20 11:11:54;;;;;;;13.33;6.90;;;18.60;99.90;;;;;;5046884;28;20455;-60
2023/05/20 11:14:22;;;;;;;9.20;6.40;;;19.10;99.90;;;;;;5044079;28;20441;-61
2023/05/20 11:16:52;;;;;;;7.87;6.17;;;19.20;99.90;;;;;;5044166;28;20448;-60
2023/05/20 11:19:21;;;;;;;8.13;5.87;;;19.50;99.90;;;;;;5055148;28;20555;-59
2023/05/20 11:21:48;;;;;;;11.47;7.07;;;;;;;;;;5050240;28;20824;-60
2023/05/20 11:24:24;;;;;;;7.83;6.53;;;20.30;99.90;;;;;;5041999;28;20475;-60
2023/05/20 11:26:52;;;;;;;9.07;5.97;;;;;;;;;;5041521;28;20428;-61
2023/05/20 11:29:20;;;;;;;9.83;7.53;;;;;;;;;;5042420;28;20467;-61
2023/05/20 11:31:49;;;;;;;11.20;5.90;;;20.40;99.90;;;;;;5049423;28;20528;-60
2023/05/20 11:34:16;;;;;;;9.20;6.60;;;;;;;;;;5047270;28;20575;-62
2023/05/20 11:36:45;;;;;;;8.50;5.47;;;;;;;;;;5042758;28;20448;-62
2023/05/20 11:39:13;;;;;;;8.13;5.67;;;;;;;;;;5045316;28;20479;-62
2023/05/20 11:41:42;;;;;;;8.97;6.57;;;20.20;99.90;;;;;;5041722;28;20464;-60
2023/05/20 11:44:12;;;;;;;10.20;5.83;;;;;;;;;;5045768;28;20483;-62
2023/05/20 11:46:42;;;;;;;9.43;5.93;;;;;;;;;;5046902;28;20448;-61
2023/05/20 11:49:09;;;;;;;8.73;5.80;;;;;;;;;;5046745;28;20472;-62
2023/05/20 11:51:38;;;;;;;14.83;6.03;;;20.80;99.90;;;;;;5040359;28;20538;-62
2023/05/20 11:54:07;;;;;;;8.17;5.70;;;20.90;99.90;;;;;;5045601;28;20499;-60
2023/05/20 11:56:36;;;;;;;15.40;6.57;;;;;;;;;;5048017;28;20460;-61
2023/05/20 11:59:03;;;;;;;10.30;6.67;;;;;;;;;;5043643;28;20468;-61
2023/05/20 12:01:36;;;;;;;12.87;6.43;;;21.20;99.90;;;;;;5042006;28;20484;-61
2023/05/20 12:04:03;;;;;;;9.47;6.83;;;;;;;;;;5036093;28;20474;-63
2023/05/20 12:06:30;;;;;;;9.73;6.87;;;;;;;;;;5035668;28;20506;-62
2023/05/20 12:08:58;;;;;;;7.73;6.07;;;;;;;;;;5035757;28;20491;-62
2023/05/20 12:11:26;;;;;;;10.20;6.73;;;20.70;99.90;;;;;;5038237;28;20464;-58
2023/05/20 12:13:53;;;;;;;11.40;5.90;;;;;;;;;;5044039;28;20824;-62
2023/05/20 12:16:22;;;;;;;9.83;6.53;;;20.20;99.90;;;;;;5043124;28;20479;-62
2023/05/20 12:18:49;;;;;;;6.40;5.07;;;;;;;;;;5042546;28;20503;-60
2023/05/20 12:21:16;;;;;;;8.40;5.87;;;;;;;;;;5039335;28;20984;-61
2023/05/20 12:23:44;;;;;;;7.83;5.80;;;;;;;;;;5039717;28;20468;-62
2023/05/20 12:26:11;;;;;;;7.43;5.67;;;;;;;;;;5040694;28;20496;-61
2023/05/20 12:28:39;;;;;;;12.77;6.90;;;20.90;99.90;;;;;;5042682;28;20488;-62
2023/05/20 12:31:07;;;;;;;8.63;6.60;;;21.20;99.90;;;;;;5039307;28;20921;-60
2023/05/20 12:33:35;;;;;;;9.13;6.67;;;;;;;;;;5040076;28;20510;-58
2023/05/20 12:36:05;;;;;;;9.37;7.03;;;21.30;99.90;;;;;;5038956;28;20544;-61
2023/05/20 12:38:32;;;;;;;10.03;7.17;;;;;;;;;;5041714;28;20437;-62
2023/05/20 12:41:00;;;;;;;7.40;5.93;;;;;;;;;;5039375;28;20471;-62
2023/05/20 12:43:27;;;;;;;8.47;6.37;;;;;;;;;;5041307;28;20449;-62
2023/05/20 12:45:56;;;;;;;8.70;6.30;;;;;;;;;;5040626;28;20492;-63
2023/05/20 12:48:23;;;;;;;8.70;5.80;;;;;;;;;;5040444;28;20544;-63
2023/05/20 12:50:50;;;;;;;11.33;7.60;;;;;;;;;;5040945;28;21015;-58
2023/05/20 12:53:17;;;;;;;7.77;6.30;;;;;;;;;;5044458;28;20527;-61
2023/05/20 12:55:45;;;;;;;11.70;7.10;;;;;;;;;;5042459;28;21206;-62
2023/05/20 12:58:12;;;;;;;8.50;5.47;;;;;;;;;;5041232;28;20448;-61
2023/05/20 13:00:39;;;;;;;7.83;6.30;;;;;;;;;;5038612;28;20460;-62
2023/05/20 13:03:07;;;;;;;7.53;6.73;;;;;;;;;;5043102;28;20508;-61
2023/05/20 13:05:35;;;;;;;9.97;6.50;;;;;;;;;;5043128;28;20476;-59
2023/05/20 13:08:02;;;;;;;7.00;6.23;;;;;;;;;;5038747;28;20475;-60
2023/05/20 13:10:32;;;;;;;15.00;6.93;;;;;;;;;;5038744;28;20499;-60
2023/05/20 13:12:59;;;;;;;8.30;6.43;;;;;;;;;;5038463;28;20484;-61
2023/05/20 13:15:26;;;;;;;6.47;4.97;;;;;;;;;;5038462;28;20468;-61
2023/05/20 13:17:54;;;;;;;10.30;6.83;;;;;;;;;;5038398;28;20495;-61
2023/05/20 13:20:22;;;;;;;8.80;6.10;;;21.20;99.90;;;;;;5048120;28;20482;-61
2023/05/20 13:22:49;;;;;;;13.97;6.13;;;;;;;;;;5042229;28;20536;-63
2023/05/20 13:25:17;;;;;;;9.27;6.10;;;;;;;;;;5038565;28;20472;-61
2023/05/20 13:27:44;;;;;;;9.07;6.50;;;;;;;;;;5038531;28;20437;-60
2023/05/20 13:30:11;;;;;;;8.30;5.83;;;;;;;;;;5038843;28;20567;-60
2023/05/20 13:32:38;;;;;;;9.73;6.63;;;;;;;;;;5038411;28;20475;-61
2023/05/20 13:35:06;;;;;;;9.07;7.17;;;22.20;99.90;;;;;;5042108;28;20535;-62
2023/05/20 13:37:34;;;;;;;8.20;6.43;;;21.50;99.90;;;;;;5037618;28;20475;-63
2023/05/20 13:40:02;;;;;;;5.97;5.17;;;;;;;;;;5040021;28;20496;-60
2023/05/20 13:42:29;;;;;;;7.50;6.37;;;;;;;;;;5039633;28;20468;-61
2023/05/20 13:44:56;;;;;;;6.90;5.83;;;;;;;;;;5039481;28;20535;-59
2023/05/20 13:47:23;;;;;;;8.30;6.70;;;;;;;;;;5042140;28;20508;-62
2023/05/20 13:49:50;;;;;;;7.67;5.83;;;;;;;;;;5041239;28;20452;-61
2023/05/20 13:52:17;;;;;;;7.63;5.93;;;;;;;;;;5039271;28;20846;-60
2023/05/20 13:54:47;;;;;;;7.40;5.20;;;21.60;99.90;;;;;;5038614;28;20519;-61
2023/05/20 13:57:14;;;;;;;8.17;6.70;;;;;;;;;;5044719;28;20499;-62
2023/05/20 13:59:41;;;;;;;9.30;6.10;;;;;;;;;;5044430;28;20473;-60
2023/05/20 14:02:09;;;;;;;7.63;6.07;;;;;;;;;;5045331;28;20464;-62
2023/05/20 14:04:38;;;;;;;8.83;5.90;;;;;;;;;;5038471;28;20462;-61
2023/05/20 14:07:05;;;;;;;9.53;6.17;;;;;;;;;;5040227;28;20502;-59
2023/05/20 14:09:33;;;;;;;8.03;5.70;;;;;;;;;;5040690;28;20547;-58
2023/05/20 14:12:01;;;;;;;7.67;5.80;;;21.70;99.90;;;;;;5043478;28;20508;-57
2023/05/20 14:14:28;;;;;;;12.03;6.20;;;;;;;;;;5038678;28;20878;-62
2023/05/20 14:16:55;;;;;;;6.43;5.60;;;;;;;;;;5037201;28;20486;-61